Dallas, Texas
Traffic Map
Current Weather Conditions
Dallas, Texas
Clear
Clear

Feels Like: 7°
Wind Chill: Ceiling: Unl
Heat Index: Visibility: 10mi
Dew Point: Wind: 9mph
Humidity: 74% Direction: 130° (SE)
Pressure: 30.08in Gusts: 0mph
Raw Report DataKDAL 281153Z 13008KT 10SM CLR 09/04 A3008 RMK AO2 SLP183 T00890044 10156 20083 55005
Traffic Incident Summary
Active as of:
Severity:
Category:
InformationThere was an issue retrieving the traffic information for this location. Please try a different location or try again shortly.
Advertisements
Track Severe Weather on mobile